createdAt,value
2017-12-24T00:01:08.916Z,24.60
2017-12-24T00:03:36.445Z,23.93
2017-12-24T00:06:03.982Z,23.57
2017-12-24T00:08:31.572Z,23.30
2017-12-24T00:10:59.106Z,23.50
2017-12-24T00:13:26.627Z,22.73
2017-12-24T00:15:54.145Z,23.50
2017-12-24T00:18:21.653Z,22.10
2017-12-24T00:20:49.164Z,22.30
2017-12-24T00:23:16.684Z,22.53
2017-12-24T00:25:44.197Z,21.37
2017-12-24T00:28:11.730Z,22.77
2017-12-24T00:30:39.242Z,22.40
2017-12-24T00:33:06.757Z,24.17
2017-12-24T00:35:34.299Z,22.67
2017-12-24T00:38:01.822Z,22.10
2017-12-24T00:40:29.337Z,20.90
2017-12-24T00:42:56.845Z,22.80
2017-12-24T00:45:24.359Z,22.63
2017-12-24T00:47:51.876Z,22.67
2017-12-24T00:50:19.390Z,22.67
2017-12-24T00:52:46.904Z,22.43
2017-12-24T00:55:14.422Z,22.80
2017-12-24T00:57:41.946Z,23.00
2017-12-24T01:00:09.466Z,22.77
2017-12-24T01:02:36.977Z,21.87
2017-12-24T01:05:04.500Z,22.03
2017-12-24T01:07:32.017Z,20.87
2017-12-24T01:09:59.543Z,20.83
2017-12-24T01:12:27.061Z,21.77
2017-12-24T01:14:54.578Z,21.43
2017-12-24T01:17:22.095Z,21.20
2017-12-24T01:19:49.621Z,20.20
2017-12-24T01:22:17.142Z,20.57
2017-12-24T01:24:44.668Z,20.20
2017-12-24T01:27:12.193Z,19.73
2017-12-24T01:29:39.717Z,19.13
2017-12-24T01:32:07.234Z,19.20
2017-12-24T01:34:34.748Z,18.53
2017-12-24T01:37:02.256Z,18.63
2017-12-24T01:39:29.774Z,17.40
2017-12-24T01:41:57.305Z,17.97
2017-12-24T01:44:24.817Z,17.57
2017-12-24T01:46:52.328Z,18.40
2017-12-24T01:49:20.653Z,18.00
2017-12-24T01:51:48.170Z,17.13
2017-12-24T01:54:15.690Z,17.27
2017-12-24T01:56:43.213Z,17.70
2017-12-24T01:59:10.742Z,18.27
2017-12-24T02:01:38.265Z,16.73
2017-12-24T02:04:05.782Z,17.27
2017-12-24T02:06:33.302Z,16.83
2017-12-24T02:09:00.816Z,17.23
2017-12-24T02:11:28.332Z,16.60
2017-12-24T02:13:55.856Z,17.07
2017-12-24T02:16:23.369Z,17.10
2017-12-24T02:18:50.893Z,16.90
2017-12-24T02:21:18.406Z,15.67
2017-12-24T02:23:45.938Z,17.10
2017-12-24T02:26:13.452Z,17.27
2017-12-24T02:28:40.960Z,16.73
2017-12-24T02:31:08.475Z,16.27
2017-12-24T02:33:36.007Z,17.43
2017-12-24T02:36:03.534Z,16.87
2017-12-24T02:38:31.059Z,17.23
2017-12-24T02:40:58.585Z,16.63
2017-12-24T02:43:26.102Z,18.17
2017-12-24T02:45:53.628Z,16.97
2017-12-24T02:48:21.145Z,17.17
2017-12-24T02:50:48.661Z,16.33
2017-12-24T02:53:16.172Z,18.10
2017-12-24T02:55:43.696Z,17.03
2017-12-24T02:58:11.221Z,17.10
2017-12-24T03:00:38.742Z,17.77
2017-12-24T03:03:06.269Z,17.30
2017-12-24T03:05:33.798Z,17.73
2017-12-24T03:08:01.321Z,16.97
2017-12-24T03:10:28.857Z,18.40
2017-12-24T03:12:56.373Z,17.67
2017-12-24T03:15:23.884Z,16.73
2017-12-24T03:17:51.405Z,17.40
2017-12-24T03:20:18.927Z,18.30
2017-12-24T03:22:46.450Z,17.37
2017-12-24T03:25:13.973Z,16.70
2017-12-24T03:27:41.489Z,18.43
2017-12-24T03:30:09.014Z,17.40
2017-12-24T03:32:36.529Z,16.40
2017-12-24T03:35:04.077Z,16.30
2017-12-24T03:37:31.608Z,17.20
2017-12-24T03:39:59.129Z,17.80
2017-12-24T03:42:26.658Z,15.73
2017-12-24T03:44:54.185Z,17.73
2017-12-24T03:47:21.720Z,15.83
2017-12-24T03:49:49.236Z,17.00
2017-12-24T03:52:16.752Z,17.00
2017-12-24T03:54:44.272Z,15.97
2017-12-24T03:57:11.790Z,16.10
2017-12-24T03:59:39.315Z,16.27
2017-12-24T04:02:06.828Z,16.00
2017-12-24T04:04:34.349Z,16.40
2017-12-24T04:07:01.860Z,15.93
2017-12-24T04:09:29.398Z,16.53
2017-12-24T04:11:56.917Z,16.20
2017-12-24T04:14:24.436Z,15.80
2017-12-24T04:16:51.955Z,15.73
2017-12-24T04:19:19.475Z,16.07
2017-12-24T04:21:46.993Z,15.23
2017-12-24T04:24:14.522Z,15.83
2017-12-24T04:26:42.042Z,15.70
2017-12-24T04:29:09.560Z,15.83
2017-12-24T04:31:37.083Z,15.53
2017-12-24T04:34:04.610Z,15.53
2017-12-24T04:36:32.136Z,15.30
2017-12-24T04:38:59.648Z,15.30
2017-12-24T04:41:27.165Z,15.93
2017-12-24T04:43:54.681Z,15.70
2017-12-24T04:46:22.192Z,15.23
2017-12-24T04:48:49.717Z,17.03
2017-12-24T04:51:17.240Z,16.00
2017-12-24T04:53:44.760Z,15.20
2017-12-24T04:56:12.281Z,15.10
2017-12-24T04:58:39.796Z,16.57
2017-12-24T05:01:07.318Z,16.83
2017-12-24T05:03:34.841Z,16.67
2017-12-24T05:06:02.365Z,16.50
2017-12-24T05:08:29.892Z,15.87
2017-12-24T05:10:57.403Z,17.47
2017-12-24T05:13:24.925Z,17.27
2017-12-24T05:15:52.446Z,16.70
2017-12-24T05:18:19.981Z,17.97
2017-12-24T05:20:47.504Z,17.93
2017-12-24T05:23:15.040Z,17.00
2017-12-24T05:25:42.553Z,17.40
2017-12-24T05:28:10.074Z,17.33
2017-12-24T05:30:37.597Z,17.60
2017-12-24T05:33:05.112Z,16.60
2017-12-24T05:35:32.629Z,18.47
2017-12-24T05:38:00.156Z,17.53
2017-12-24T05:40:27.673Z,18.33
2017-12-24T05:42:55.197Z,17.60
2017-12-24T05:45:22.718Z,17.87
2017-12-24T05:47:50.242Z,17.87
2017-12-24T05:50:17.774Z,17.33
2017-12-24T05:52:45.289Z,17.33
2017-12-24T05:55:12.818Z,18.77
2017-12-24T05:57:40.338Z,18.33
2017-12-24T06:00:07.869Z,17.87
2017-12-24T06:02:35.386Z,18.10
2017-12-24T06:05:02.906Z,18.17
2017-12-24T06:07:30.426Z,18.40
2017-12-24T06:09:57.948Z,17.67
2017-12-24T06:12:25.462Z,17.43
2017-12-24T06:14:52.993Z,18.43
2017-12-24T06:17:20.510Z,18.17
2017-12-24T06:19:48.024Z,18.50
2017-12-24T06:22:15.547Z,18.30
2017-12-24T06:24:43.070Z,19.30
2017-12-24T06:27:10.589Z,18.93
2017-12-24T06:29:38.108Z,18.87
2017-12-24T06:32:05.625Z,18.40
2017-12-24T06:34:33.153Z,18.03
2017-12-24T06:37:00.665Z,19.00
2017-12-24T06:39:28.189Z,18.80
2017-12-24T06:41:55.716Z,18.03
2017-12-24T06:44:23.228Z,18.37
2017-12-24T06:46:50.750Z,18.50
2017-12-24T06:49:18.273Z,18.23
2017-12-24T06:51:45.790Z,18.07
2017-12-24T06:54:13.306Z,17.60
2017-12-24T06:56:40.824Z,17.80
2017-12-24T06:59:08.346Z,16.70
2017-12-24T07:01:35.867Z,17.13
2017-12-24T07:04:03.376Z,18.50
2017-12-24T07:06:30.902Z,18.90
2017-12-24T07:08:58.416Z,18.03
2017-12-24T07:11:25.942Z,17.93
2017-12-24T07:13:53.456Z,17.27
2017-12-24T07:16:20.975Z,17.17
2017-12-24T07:18:48.503Z,18.40
2017-12-24T07:21:16.016Z,18.73
2017-12-24T07:23:43.548Z,17.20
2017-12-24T07:26:11.069Z,17.77
2017-12-24T07:28:38.586Z,18.87
2017-12-24T07:31:06.109Z,17.43
2017-12-24T07:33:33.629Z,17.80
2017-12-24T07:36:01.151Z,18.40
2017-12-24T07:38:28.700Z,18.00
2017-12-24T07:40:56.225Z,18.07
2017-12-24T07:43:23.740Z,18.33
2017-12-24T07:45:51.254Z,18.40
2017-12-24T07:48:18.783Z,18.47
2017-12-24T07:50:46.308Z,17.67
2017-12-24T07:53:13.831Z,18.77
2017-12-24T07:55:41.344Z,18.13
2017-12-24T07:58:08.874Z,18.10
2017-12-24T08:00:36.393Z,19.27
2017-12-24T08:03:03.905Z,17.77
2017-12-24T08:05:31.423Z,17.60
2017-12-24T08:07:58.948Z,18.53
2017-12-24T08:10:26.479Z,19.70
2017-12-24T08:12:53.999Z,18.00
2017-12-24T08:15:21.530Z,20.42
2017-12-24T08:17:49.059Z,19.40
2017-12-24T08:20:16.585Z,19.60
2017-12-24T08:22:44.097Z,18.43
2017-12-24T08:25:11.625Z,18.70
2017-12-24T08:27:39.159Z,18.83
2017-12-24T08:30:06.679Z,18.73
2017-12-24T08:32:34.206Z,18.67
2017-12-24T08:35:01.726Z,18.80
2017-12-24T08:37:29.255Z,18.80
2017-12-24T08:39:56.790Z,17.47
2017-12-24T08:42:24.314Z,17.93
2017-12-24T08:44:52.091Z,18.77
2017-12-24T08:47:19.610Z,18.93
2017-12-24T08:49:47.157Z,18.77
2017-12-24T08:52:14.684Z,18.80
2017-12-24T08:54:42.204Z,18.53
2017-12-24T08:57:09.739Z,17.87
2017-12-24T08:59:37.261Z,18.67
2017-12-24T09:02:04.779Z,18.70
2017-12-24T09:04:32.314Z,21.42
2017-12-24T09:06:59.865Z,20.37
2017-12-24T09:09:27.456Z,19.47
2017-12-24T09:11:54.988Z,19.67
2017-12-24T09:14:22.552Z,19.47
2017-12-24T09:16:50.153Z,20.07
2017-12-24T09:19:17.700Z,19.87
2017-12-24T09:21:45.217Z,20.17
2017-12-24T09:24:12.747Z,19.67
2017-12-24T09:26:40.394Z,19.73
2017-12-24T09:29:07.925Z,19.47
2017-12-24T09:31:35.515Z,18.87
2017-12-24T09:34:03.074Z,18.33
2017-12-24T09:36:30.621Z,19.50
2017-12-24T09:38:58.141Z,18.93
2017-12-24T09:41:25.708Z,18.77
2017-12-24T09:43:53.309Z,18.17
2017-12-24T09:46:20.863Z,18.60
2017-12-24T09:48:48.436Z,17.80
2017-12-24T09:51:15.995Z,18.83
2017-12-24T09:53:43.527Z,18.20
2017-12-24T09:56:11.046Z,17.43
2017-12-24T09:58:38.577Z,17.93
2017-12-24T10:01:06.485Z,17.07
2017-12-24T10:03:34.043Z,17.87
2017-12-24T10:06:01.578Z,17.60
2017-12-24T10:08:29.097Z,17.30
2017-12-24T10:10:56.878Z,16.93
2017-12-24T10:13:24.553Z,17.57
2017-12-24T10:15:52.129Z,17.30
2017-12-24T10:18:19.668Z,17.03
2017-12-24T10:20:47.228Z,16.33
2017-12-24T10:23:14.752Z,17.80
2017-12-24T10:25:42.463Z,17.73
2017-12-24T10:28:09.996Z,18.30
2017-12-24T10:30:37.638Z,18.63
2017-12-24T10:33:05.161Z,17.47
2017-12-24T10:35:32.696Z,18.37
2017-12-24T10:38:00.350Z,17.43
2017-12-24T10:40:28.102Z,17.03
2017-12-24T10:42:55.650Z,16.47
2017-12-24T10:45:23.459Z,16.67
2017-12-24T10:47:51.029Z,16.07
2017-12-24T10:50:18.556Z,16.67
2017-12-24T10:52:46.110Z,15.67
2017-12-24T10:55:13.649Z,16.17
2017-12-24T10:57:41.175Z,15.53
2017-12-24T11:00:08.700Z,16.07
2017-12-24T11:02:36.226Z,16.47
2017-12-24T11:05:03.770Z,15.93
2017-12-24T11:07:31.289Z,17.23
2017-12-24T11:09:58.810Z,15.53
2017-12-24T11:12:26.328Z,15.80
2017-12-24T11:14:53.850Z,15.20
2017-12-24T11:17:21.378Z,15.97
2017-12-24T11:19:48.898Z,16.07
2017-12-24T11:22:16.435Z,15.93
2017-12-24T11:24:43.957Z,15.90
2017-12-24T11:27:11.481Z,15.87
2017-12-24T11:29:39.010Z,15.57
2017-12-24T11:32:06.533Z,15.63
2017-12-24T11:34:34.053Z,16.07
2017-12-24T11:37:01.592Z,15.40
2017-12-24T11:39:29.134Z,15.77
2017-12-24T11:41:56.657Z,15.80
2017-12-24T11:44:24.176Z,15.03
2017-12-24T11:46:51.697Z,15.20
2017-12-24T11:49:19.229Z,16.27
2017-12-24T11:51:46.766Z,15.23
2017-12-24T11:54:14.304Z,15.90
2017-12-24T11:56:41.818Z,14.90
2017-12-24T11:59:09.342Z,15.13
2017-12-24T12:01:36.854Z,14.47
2017-12-24T12:04:04.369Z,15.03
2017-12-24T12:06:31.899Z,14.90
2017-12-24T12:08:59.426Z,14.10
2017-12-24T12:11:26.943Z,14.50
2017-12-24T12:13:54.479Z,14.70
2017-12-24T12:16:21.998Z,13.70
2017-12-24T12:18:49.520Z,14.70
2017-12-24T12:21:17.060Z,14.77
2017-12-24T12:23:44.587Z,14.87
2017-12-24T12:26:12.592Z,14.63
2017-12-24T12:28:40.117Z,13.30
2017-12-24T12:31:07.645Z,13.93
2017-12-24T12:33:35.181Z,14.10
2017-12-24T12:36:02.688Z,13.80
2017-12-24T12:38:30.245Z,14.37
2017-12-24T12:40:57.769Z,14.93
2017-12-24T12:43:25.283Z,13.43
2017-12-24T12:45:52.830Z,13.50
2017-12-24T12:48:20.387Z,14.17
2017-12-24T12:50:47.928Z,13.30
2017-12-24T12:53:15.462Z,13.17
2017-12-24T12:55:42.988Z,13.57
2017-12-24T12:58:10.510Z,13.50
2017-12-24T13:00:38.037Z,13.87
2017-12-24T13:03:05.557Z,13.90
2017-12-24T13:05:33.097Z,12.97
2017-12-24T13:08:00.667Z,12.80
2017-12-24T13:10:28.211Z,13.77
2017-12-24T13:12:55.750Z,13.23
2017-12-24T13:15:23.281Z,12.83
2017-12-24T13:17:50.792Z,11.97
2017-12-24T13:20:18.313Z,13.10
2017-12-24T13:22:45.840Z,12.20
2017-12-24T13:25:13.369Z,12.37
2017-12-24T13:27:40.893Z,12.17
2017-12-24T13:30:08.422Z,12.03
2017-12-24T13:32:35.965Z,12.87
2017-12-24T13:35:03.480Z,11.47
2017-12-24T13:37:30.998Z,11.67
2017-12-24T13:39:58.513Z,12.67
2017-12-24T13:42:26.048Z,11.73
2017-12-24T13:44:53.568Z,11.47
2017-12-24T13:47:21.080Z,11.17
2017-12-24T13:49:48.601Z,10.97
2017-12-24T13:52:16.120Z,11.37
2017-12-24T13:54:43.641Z,11.40
2017-12-24T13:57:11.170Z,11.10
2017-12-24T13:59:38.694Z,10.37
2017-12-24T14:02:06.217Z,10.83
2017-12-24T14:04:33.749Z,11.37
2017-12-24T14:07:01.277Z,10.77
2017-12-24T14:09:28.797Z,10.70
2017-12-24T14:11:56.329Z,10.53
2017-12-24T14:14:23.856Z,10.63
2017-12-24T14:16:51.378Z,9.80
2017-12-24T14:19:18.906Z,9.50
2017-12-24T14:21:46.434Z,10.13
2017-12-24T14:24:13.948Z,9.60
2017-12-24T14:26:41.466Z,9.23
2017-12-24T14:29:08.985Z,9.20
2017-12-24T14:31:36.506Z,9.20
2017-12-24T14:34:04.020Z,8.83
2017-12-24T14:36:31.534Z,9.50
2017-12-24T14:38:59.053Z,8.47
2017-12-24T14:41:26.574Z,8.80
2017-12-24T14:43:54.096Z,9.00
2017-12-24T14:46:21.625Z,8.67
2017-12-24T14:48:49.148Z,8.47
2017-12-24T14:51:16.657Z,8.50
2017-12-24T14:53:44.168Z,7.90
2017-12-24T14:56:11.698Z,8.00
2017-12-24T14:58:39.210Z,7.20
2017-12-24T15:01:06.736Z,7.70
2017-12-24T15:03:34.245Z,7.27
2017-12-24T15:06:01.766Z,7.17
2017-12-24T15:08:29.282Z,7.10
2017-12-24T15:10:56.839Z,8.10
2017-12-24T15:13:24.357Z,9.53
2017-12-24T15:15:51.875Z,7.80
2017-12-24T15:18:19.383Z,7.23
2017-12-24T15:20:46.905Z,7.13
2017-12-24T15:23:14.424Z,7.70
2017-12-24T15:25:41.946Z,6.93
2017-12-24T15:28:09.454Z,6.77
2017-12-24T15:30:36.977Z,6.73
2017-12-24T15:33:04.488Z,6.53
2017-12-24T15:35:32.003Z,6.50
2017-12-24T15:37:59.518Z,6.97
2017-12-24T15:40:27.025Z,6.43
2017-12-24T15:42:54.537Z,6.10
2017-12-24T15:45:22.058Z,5.70
2017-12-24T15:47:49.578Z,6.00
2017-12-24T15:50:17.094Z,5.50
2017-12-24T15:52:44.618Z,5.90
2017-12-24T15:55:12.130Z,6.37
2017-12-24T15:57:39.636Z,6.03
2017-12-24T16:00:07.154Z,5.90
2017-12-24T16:02:34.667Z,6.27
2017-12-24T16:05:02.177Z,5.60
2017-12-24T16:07:29.687Z,6.10
2017-12-24T16:09:57.193Z,5.30
2017-12-24T16:12:24.705Z,5.87
2017-12-24T16:14:52.214Z,5.60
2017-12-24T16:17:19.743Z,5.10
2017-12-24T16:19:47.262Z,5.00
2017-12-24T16:22:14.777Z,5.10
2017-12-24T16:24:42.726Z,5.63
2017-12-24T16:27:10.233Z,5.63
2017-12-24T16:29:37.743Z,5.57
2017-12-24T16:32:05.523Z,4.93
2017-12-24T16:34:33.033Z,4.80
2017-12-24T16:37:00.582Z,4.90
2017-12-24T16:39:28.101Z,4.50
2017-12-24T16:41:55.609Z,4.87
2017-12-24T16:44:23.125Z,4.30
2017-12-24T16:46:50.637Z,4.13
2017-12-24T16:49:18.149Z,4.40
2017-12-24T16:51:45.654Z,3.73
2017-12-24T16:54:13.161Z,3.87
2017-12-24T16:56:40.673Z,3.87
2017-12-24T16:59:08.181Z,3.93
2017-12-24T17:01:35.702Z,3.90
2017-12-24T17:04:03.210Z,3.30
2017-12-24T17:06:30.789Z,3.50
2017-12-24T17:08:58.501Z,3.43
2017-12-24T17:11:26.020Z,2.90
2017-12-24T17:13:53.586Z,3.17
2017-12-24T17:16:21.185Z,3.57
2017-12-24T17:18:48.825Z,3.40
2017-12-24T17:21:16.481Z,3.27
2017-12-24T17:23:44.007Z,2.60
2017-12-24T17:26:11.795Z,3.00
2017-12-24T17:28:39.313Z,2.87
2017-12-24T17:31:07.090Z,2.90
2017-12-24T17:33:34.670Z,3.20
2017-12-24T17:36:02.205Z,2.87
2017-12-24T17:38:29.901Z,2.87
2017-12-24T17:40:57.509Z,2.57
2017-12-24T17:43:25.066Z,2.90
2017-12-24T17:45:52.607Z,2.93
2017-12-24T17:48:20.236Z,3.30
2017-12-24T17:50:47.783Z,2.83
2017-12-24T17:53:15.368Z,2.70
2017-12-24T17:55:42.921Z,2.70
2017-12-24T17:58:10.435Z,2.57
2017-12-24T18:00:37.949Z,3.00
2017-12-24T18:03:05.509Z,3.00
2017-12-24T18:05:33.196Z,2.43
2017-12-24T18:08:00.778Z,2.97
2017-12-24T18:10:28.338Z,3.10
2017-12-24T18:12:55.850Z,2.70
2017-12-24T18:15:23.367Z,3.17
2017-12-24T18:17:50.890Z,3.13
2017-12-24T18:20:18.407Z,2.73
2017-12-24T18:22:45.928Z,2.63
2017-12-24T18:25:13.442Z,2.50
2017-12-24T18:27:40.964Z,3.10
2017-12-24T18:30:08.494Z,3.23
2017-12-24T18:32:36.052Z,3.13
2017-12-24T18:35:03.608Z,3.60
2017-12-24T18:37:31.157Z,3.23
2017-12-24T18:39:58.664Z,3.40
2017-12-24T18:42:26.272Z,3.73
2017-12-24T18:44:53.783Z,4.07
2017-12-24T18:47:21.380Z,3.20
2017-12-24T18:49:49.094Z,3.97
2017-12-24T18:52:16.601Z,4.00
2017-12-24T18:54:44.186Z,4.23
2017-12-24T18:57:11.698Z,4.47
2017-12-24T18:59:39.261Z,4.43
2017-12-24T19:02:06.870Z,4.70
2017-12-24T19:04:34.462Z,3.90
2017-12-24T19:07:02.297Z,4.50
2017-12-24T19:09:29.964Z,5.10
2017-12-24T19:11:57.552Z,4.30
2017-12-24T19:14:25.109Z,4.73
2017-12-24T19:16:52.727Z,4.50
2017-12-24T19:19:20.290Z,4.50
2017-12-24T19:21:47.954Z,5.30
2017-12-24T19:24:15.527Z,5.27
2017-12-24T19:26:43.082Z,5.00
2017-12-24T19:29:10.613Z,5.57
2017-12-24T19:31:38.180Z,4.97
2017-12-24T19:34:05.769Z,5.40
2017-12-24T19:36:33.429Z,5.63
2017-12-24T19:39:00.958Z,5.87
2017-12-24T19:41:28.482Z,5.30
2017-12-24T19:43:55.992Z,5.80
2017-12-24T19:46:23.758Z,6.40
2017-12-24T19:48:51.325Z,6.20
2017-12-24T19:51:18.899Z,5.70
2017-12-24T19:53:46.429Z,5.67
2017-12-24T19:56:13.958Z,7.50
2017-12-24T19:58:41.482Z,6.80
2017-12-24T20:01:09.075Z,6.93
2017-12-24T20:03:36.585Z,6.50
2017-12-24T20:06:04.111Z,6.70
2017-12-24T20:08:31.706Z,7.00
2017-12-24T20:10:59.283Z,7.03
2017-12-24T20:13:26.794Z,7.27
2017-12-24T20:15:54.382Z,7.20
2017-12-24T20:18:21.951Z,7.20
2017-12-24T20:20:49.493Z,7.43
2017-12-24T20:23:17.022Z,7.37
2017-12-24T20:25:44.618Z,7.83
2017-12-24T20:28:12.169Z,8.00
2017-12-24T20:30:39.750Z,8.53
2017-12-24T20:33:07.270Z,8.03
2017-12-24T20:35:34.792Z,8.13
2017-12-24T20:38:02.428Z,8.07
2017-12-24T20:40:29.974Z,8.07
2017-12-24T20:42:57.582Z,8.43
2017-12-24T20:45:25.139Z,8.60
2017-12-24T20:47:52.674Z,9.40
2017-12-24T20:50:20.193Z,9.07
2017-12-24T20:52:47.786Z,10.27
2017-12-24T20:55:15.312Z,9.70
2017-12-24T20:57:42.832Z,9.23
2017-12-24T21:00:10.468Z,9.73
2017-12-24T21:02:37.993Z,9.67
2017-12-24T21:05:05.593Z,10.00
2017-12-24T21:07:33.147Z,9.07
2017-12-24T21:10:00.681Z,9.93
2017-12-24T21:12:28.226Z,9.93
2017-12-24T21:14:55.744Z,9.57
2017-12-24T21:17:23.254Z,9.60
2017-12-24T21:19:50.774Z,11.37
2017-12-24T21:22:18.285Z,10.80
2017-12-24T21:24:45.804Z,10.67
2017-12-24T21:27:13.434Z,10.70
2017-12-24T21:29:40.984Z,10.07
2017-12-24T21:32:08.533Z,10.40
2017-12-24T21:34:36.053Z,9.80
2017-12-24T21:37:03.586Z,10.00
2017-12-24T21:39:31.107Z,10.50
2017-12-24T21:41:58.634Z,9.80
2017-12-24T21:44:26.213Z,10.30
2017-12-24T21:46:53.801Z,11.00
2017-12-24T21:49:21.414Z,9.60
2017-12-24T21:51:48.956Z,9.63
2017-12-24T21:54:16.494Z,8.93
2017-12-24T21:56:44.148Z,12.80
2017-12-24T21:59:11.676Z,9.53
2017-12-24T22:01:40.095Z,9.70
2017-12-24T22:04:07.635Z,9.73
2017-12-24T22:06:35.179Z,8.63
2017-12-24T22:09:02.707Z,8.83
2017-12-24T22:11:30.232Z,8.90
2017-12-24T22:13:57.786Z,8.57
2017-12-24T22:16:25.338Z,8.20
2017-12-24T22:18:52.871Z,8.83
2017-12-24T22:21:20.385Z,8.87
2017-12-24T22:23:47.919Z,8.57
2017-12-24T22:26:15.430Z,7.80
2017-12-24T22:28:42.959Z,8.53
2017-12-24T22:31:10.480Z,8.33
2017-12-24T22:33:38.047Z,7.97
2017-12-24T22:36:05.567Z,8.33
2017-12-24T22:38:33.081Z,8.07
2017-12-24T22:41:00.603Z,8.33
2017-12-24T22:43:28.121Z,8.43
2017-12-24T22:45:55.648Z,7.87
2017-12-24T22:48:23.166Z,8.47
2017-12-24T22:50:50.689Z,9.43
2017-12-24T22:53:18.201Z,8.40
2017-12-24T22:55:45.759Z,8.43
2017-12-24T22:58:13.281Z,8.53
2017-12-24T23:00:40.801Z,7.57
2017-12-24T23:03:08.322Z,7.50
2017-12-24T23:05:35.869Z,7.50
2017-12-24T23:08:03.408Z,7.13
2017-12-24T23:10:30.941Z,7.33
2017-12-24T23:12:58.457Z,7.90
2017-12-24T23:15:25.981Z,7.43
2017-12-24T23:17:53.501Z,7.30
2017-12-24T23:20:21.349Z,8.03
2017-12-24T23:22:48.909Z,7.57
2017-12-24T23:25:16.479Z,7.47
2017-12-24T23:27:44.049Z,7.50
2017-12-24T23:30:11.560Z,8.03
2017-12-24T23:32:39.072Z,8.00
2017-12-24T23:35:06.847Z,7.40
2017-12-24T23:37:34.389Z,7.20
2017-12-24T23:40:01.905Z,7.30
2017-12-24T23:42:29.522Z,7.23
2017-12-24T23:44:57.086Z,7.87
2017-12-24T23:47:24.810Z,7.40
2017-12-24T23:49:52.316Z,6.57
2017-12-24T23:52:19.837Z,7.33
2017-12-24T23:54:47.377Z,7.73
2017-12-24T23:57:14.907Z,7.03
2017-12-24T23:59:42.417Z,6.80
